Tiempo atmosférico en la estación meteorológica de Tamarite De Litera, La Melusa, Huesca (218 m.)



Fecha
DESCASC
Temp. máxima en grados centígrados (hora)
DESCASC
Temp. mínima en grados centígrados (hora)
DESCASC
Temp. media en grados centígrados
DESCASC
Racha de viento máxima en m/sg (hora)
DESCASC
Velocidad máxima media en intervalos de 10 minutos(hora)
DESCASC
Precipitaciones diarias en mm
DESCASC
Precipitaciones de 00:00 a 06:00 en mm
DESCASC
Precipitaciones de 06:00 a 12:00 en mm
DESCASC
Precipitaciones de 12:00 a 18:00 en mm
DESCASC
Precipitaciones de 18:00 a 24:00 en mm
DESCASC

Gráficas

Temp. máximas Temp. mínimas Temp. medias Precipitaciones Rachas de viento máximas Velocidades máximas media en intervalos de 10 minutos

Datos horarios

Fecha y hora oficial Temperatura (ºC) Velocidad del viento (km/h) Dirección del viento Racha (km/h) Dirección de racha Precipitación (mm) Presión (hPa) Tendencia (hPa) Humedad (%)
2020-01-23 23:00:00 5.8 3 Noroeste 6 Nordeste 0 -- -- 99
2020-01-23 22:00:00 5.7 2 Norte 8 Norte 0 -- -- 98
2020-01-23 21:00:00 5.2 4 Norte 8 Norte 0 -- -- 98
2020-01-23 20:00:00 4.7 3 Noroeste 5 Noroeste 0 -- -- 96
2020-01-23 19:00:00 6 4 Norte 5 Norte 0 -- -- 93
2020-01-23 18:00:00 8 0 Calma 8 Este 0 -- -- 88
2020-01-23 17:00:00 9.1 6 Este 13 Este 0 -- -- 85
2020-01-23 16:00:00 9.3 11 Este 15 Este 0 -- -- 86
2020-01-23 15:00:00 9.8 6 Este 13 Nordeste 0 -- -- 81
2020-01-23 14:00:00 8.5 6 Nordeste 11 Nordeste 0 -- -- 98
2020-01-23 13:00:00 7.4 6 Nordeste 8 Nordeste 1.8 -- -- 100
2020-01-23 12:00:00 6.6 5 Este 6 Este 2 -- -- 100
2020-01-23 11:00:00 6.4 2 Nordeste 6 Sur 1.2 -- -- 99
2020-01-23 10:00:00 6.1 4 Sudoeste 13 Sudoeste 0.8 -- -- 99
2020-01-23 09:00:00 6 6 Sudoeste 12 Sudoeste 0.8 -- -- 99
2020-01-23 08:00:00 5.8 6 Sudoeste 15 Sudoeste 0.4 -- -- 98
2020-01-23 07:00:00 5.8 6 Sudoeste 13 Sudoeste 0.4 -- -- 98
2020-01-23 06:00:00 6.1 5 Sudoeste 9 Oeste 1.2 -- -- 98
2020-01-23 05:00:00 6.3 4 Noroeste 12 Sur 2.8 -- -- 97
2020-01-23 04:00:00 6.4 6 Sudoeste 12 Oeste 1 -- -- 97
2020-01-23 03:00:00 6.4 4 Oeste 9 Norte 3 -- -- 97
2020-01-23 02:00:00 6.3 0 Calma 7 Noroeste 2.4 -- -- 97
2020-01-23 01:00:00 6.5 4 Noroeste 14 Norte 4.2 -- -- 97
2020-01-23 00:00:00 6.6 13 Norte 18 Norte 5.8 -- -- 97
2020-01-22 23:00:00 6.8 5 Noroeste 17 Noroeste 3.6 -- -- 97
2020-01-22 22:00:00 6.9 7 Noroeste 16 Oeste 1.4 -- -- 97
2020-01-22 21:00:00 7 8 Noroeste 19 Oeste 1.8 -- -- 97
2020-01-22 20:00:00 7.3 4 Oeste 15 Noroeste 2.2 -- -- 96
2020-01-22 19:00:00 7.5 9 Norte 21 Noroeste 4.2 -- -- 95
2020-01-22 18:00:00 8.1 7 Oeste 18 Norte 4 -- -- 95
2020-01-22 17:00:00 8.3 9 Norte 17 Norte 1.6 -- -- 95
2020-01-22 16:00:00 8.3 6 Norte 13 Este 0.8 -- -- 96
2020-01-22 15:00:00 8.4 5 Sudeste 18 Sudeste 1.6 -- -- 93
2020-01-22 14:00:00 9.6 2 Sur 9 Sudoeste 4 -- -- 89
2020-01-22 13:00:00 11 4 Sur 8 Sudoeste 0 -- -- 77
2020-01-22 12:00:00 9 4 Oeste 8 Oeste 0 -- -- 90
2020-01-22 11:00:00 7.1 4 Noroeste 7 Este 0 -- -- 99
2020-01-22 10:00:00 5.3 4 Nordeste 5 Norte 0 -- -- 100
2020-01-22 09:00:00 3.3 4 Noroeste 6 Noroeste 0 -- -- 98
2020-01-22 08:00:00 2.2 3 Nordeste 4 Sur 0 -- -- 96
2020-01-22 07:00:00 4.2 0 Calma 6 Sur 0 -- -- 95
2020-01-22 06:00:00 5.4 4 Noroeste 6 Sudoeste 0 -- -- 93
2020-01-22 05:00:00 6.8 4 Oeste 10 Sudoeste 0 -- -- 90
2020-01-22 04:00:00 7.2 3 Este 15 Nordeste 0 -- -- 88
2020-01-22 03:00:00 7.9 9 Nordeste 18 Nordeste 0 -- -- 89
2020-01-22 02:00:00 7.9 15 Nordeste 42 Nordeste 0.4 -- -- 90
2020-01-22 01:00:00 7.6 26 Nordeste 39 Nordeste 3.2 -- -- 96
2020-01-22 00:00:00 7.8 18 Este 49 Este 10.6 -- -- 95
2020-01-21 23:00:00 9.4 25 Este 49 Este 6.6 -- -- 91
2020-01-21 22:00:00 11.5 31 Este 60 Este 0 -- -- 73
2020-01-21 21:00:00 11.6 32 Este 58 Este 0 -- -- 70
2020-01-21 20:00:00 11.9 26 Este 61 Este 0 -- -- 67
2020-01-21 19:00:00 11.8 30 Este 60 Este 0 -- -- 66
2020-01-21 18:00:00 11.4 33 Este 73 Este 0 -- -- 68
2020-01-21 17:00:00 11.7 43 Este 72 Este 0 -- -- 67
2020-01-21 16:00:00 12 40 Este 77 Este 0 -- -- 65
2020-01-21 15:00:00 12 45 Este 75 Este 0 -- -- 66
2020-01-21 14:00:00 12.3 49 Este 81 Este 0 -- -- 64
2020-01-21 13:00:00 11.9 39 Este 78 Este 0.4 -- -- 68
2020-01-21 12:00:00 11.9 42 Este 74 Este 0 -- -- 67
2020-01-21 11:00:00 10.6 39 Este 69 Nordeste 0.8 -- -- 76
2020-01-21 10:00:00 9.9 31 Este 46 Este 0.4 -- -- 76
2020-01-21 09:00:00 5 6 Noroeste 18 Noroeste 0.2 -- -- 93
2020-01-21 08:00:00 3.9 5 Oeste 14 Oeste 0 -- -- 93
2020-01-21 07:00:00 3.8 9 Oeste 16 Noroeste 0 -- -- 92
2020-01-21 06:00:00 3.3 9 Noroeste 24 Noroeste 1.2 -- -- 94
2020-01-21 05:00:00 3.3 10 Noroeste 17 Noroeste 1.8 -- -- 93
2020-01-21 04:00:00 3.2 10 Noroeste 17 Noroeste 1.6 -- -- 93
2020-01-21 03:00:00 3.9 4 Sur 13 Norte 0.4 -- -- 91
2020-01-21 02:00:00 4 5 Norte 13 Noroeste 0 -- -- 89
2020-01-21 01:00:00 3.9 8 Noroeste 15 Oeste 0.2 -- -- 88
2020-01-21 00:00:00 4.1 6 Oeste 18 Noroeste 0.2 -- -- 86
2020-01-20 23:00:00 4.3 12 Noroeste 18 Oeste 0.2 -- -- 84
2020-01-20 22:00:00 4.7 9 Oeste 19 Oeste 0.2 -- -- 80
2020-01-20 21:00:00 5.3 4 Noroeste 14 Noroeste 0 -- -- 76
2020-01-20 20:00:00 5.4 6 Noroeste 16 Oeste 0 -- -- 77
2020-01-20 19:00:00 5.7 7 Noroeste 16 Noroeste 0 -- -- 73
2020-01-20 18:00:00 6.1 10 Noroeste 17 Noroeste 0 -- -- 73
2020-01-20 17:00:00 6.6 9 Oeste 19 Oeste 0 -- -- 75
2020-01-20 16:00:00 6.3 7 Oeste 20 Oeste 0 -- -- 77
2020-01-20 15:00:00 6.4 11 Oeste 18 Sudoeste 0 -- -- 74
2020-01-20 14:00:00 6.2 9 Oeste 17 Sudoeste 0 -- -- 71
2020-01-20 13:00:00 5.3 7 Sudoeste 16 Sudoeste 0 -- -- 70
2020-01-20 12:00:00 3.8 7 Sudoeste 14 Oeste 0 -- -- 82
2020-01-20 11:00:00 2.2 6 Oeste 13 Oeste 0 -- -- 87
2020-01-20 10:00:00 1.5 3 Sur 7 Sur 0 -- -- 94
2020-01-20 09:00:00 0.6 2 Sudoeste 10 Noroeste 0 -- -- 96
2020-01-20 08:00:00 0.5 4 Sudoeste 13 Este 0 -- -- 96
2020-01-20 07:00:00 0.2 2 Noroeste 10 Sudeste 0 -- -- 97
2020-01-20 06:00:00 0.2 6 Sudeste 9 Sudeste 0 -- -- 98
2020-01-20 05:00:00 -0.1 2 Norte 6 Oeste 0 -- -- 98
2020-01-20 04:00:00 -0.8 0 Calma 7 Sur 0 -- -- 98
2020-01-20 03:00:00 -1.4 4 Nordeste 8 Nordeste 0 -- -- 97
2020-01-20 02:00:00 -1 2 Este 8 Sudeste 0 -- -- 96
2020-01-20 01:00:00 -0.6 3 Sudeste 5 Norte 0 -- -- 90
2020-01-20 00:00:00 0.7 4 Noroeste 13 Noroeste 0 -- -- 82
2020-01-19 23:00:00 0.5 2 Nordeste 12 Noroeste 0 -- -- 91
2020-01-19 22:00:00 0.5 4 Noroeste 10 Norte 0 -- -- 96
2020-01-19 21:00:00 2.1 3 Oeste 11 Noroeste 0 -- -- 97
2020-01-19 20:00:00 3.4 3 Norte 9 Norte 0 -- -- 97
2020-01-19 19:00:00 3.9 5 Nordeste 8 Nordeste 0 -- -- 94
2020-01-19 18:00:00 8.2 4 Sudeste 9 Sudeste 0 -- -- 90
2020-01-19 17:00:00 10.2 4 Sudeste 9 Sudeste 0 -- -- 86
2020-01-19 16:00:00 10.2 7 Sudeste 10 Sudeste 0 -- -- 88
2020-01-19 15:00:00 9.9 5 Sudeste 10 Sudeste 0 -- -- 90
2020-01-19 14:00:00 9.5 6 Sudoeste 12 Sudoeste 0 -- -- 86
2020-01-19 13:00:00 8.7 4 Oeste 15 Oeste 0 -- -- 91
2020-01-19 12:00:00 8 7 Oeste 15 Oeste 0 -- -- 98
2020-01-19 11:00:00 7 4 Noroeste 8 Noroeste 0 -- -- 99
2020-01-19 10:00:00 6.6 4 Norte 7 Sudeste 0 -- -- 99
2020-01-19 09:00:00 6.4 3 Este 7 Sudeste 0.2 -- -- 98
2020-01-19 08:00:00 6.5 5 Este 15 Este 0 -- -- 98
2020-01-19 07:00:00 6.4 4 Nordeste 6 Nordeste 1.2 -- -- 98
2020-01-19 06:00:00 6.7 0 Calma 7 Sur 2.4 -- -- 97
2020-01-19 05:00:00 6.9 3 Sur 10 Sur 3 -- -- 97
2020-01-19 04:00:00 7.1 5 Este 13 Norte 0.6 -- -- 96
2020-01-19 03:00:00 7.1 8 Norte 12 Oeste 2.4 -- -- 94
2020-01-19 02:00:00 7.8 9 Oeste 24 Sudoeste 0 -- -- 87
2020-01-19 01:00:00 8.3 3 Sur 15 Nordeste 0 -- -- 77
2020-01-19 00:00:00 8.1 10 Nordeste 15 Este 0 -- -- 80
2020-01-18 23:00:00 7.6 9 Nordeste 13 Nordeste 0 -- -- 86
2020-01-18 22:00:00 7.4 0 Calma 6 Noroeste 0 -- -- 92
2020-01-18 21:00:00 7.7 4 Noroeste 7 Norte 0 -- -- 91
2020-01-18 20:00:00 7.6 6 Norte 8 Norte 0.2 -- -- 90
2020-01-18 19:00:00 8.7 5 Norte 6 Norte 0.2 -- -- 81
2020-01-18 18:00:00 10 3 Este 8 Este 0 -- -- 72
2020-01-18 17:00:00 10.9 3 Nordeste 11 Este 0 -- -- 64
2020-01-18 16:00:00 11.5 8 Nordeste 11 Nordeste 0 -- -- 56
2020-01-18 15:00:00 11.5 5 Este 14 Este 0 -- -- 58
2020-01-18 14:00:00 11 7 Este 13 Este 0 -- -- 61
2020-01-18 13:00:00 9.8 6 Este 12 Este 0 -- -- 66
2020-01-18 12:00:00 8.1 4 Sudeste 12 Este 0 -- -- 74
2020-01-18 11:00:00 6.1 3 Sudeste 15 Nordeste 0 -- -- 84
2020-01-18 10:00:00 2.6 3 Nordeste 6 Nordeste 0 -- -- 97
2020-01-18 09:00:00 1.6 0 Calma 10 Sur 0 -- -- 95
2020-01-18 08:00:00 1.6 6 Norte 10 Norte 0 -- -- 96
2020-01-18 07:00:00 1.5 0 Calma 7 Este 0 -- -- 96
2020-01-18 06:00:00 0.9 3 Nordeste 8 Nordeste 0 -- -- 96
2020-01-18 05:00:00 -0.2 3 Este 8 Norte 0 -- -- 96
2020-01-18 04:00:00 -0.9 2 Noroeste 9 Nordeste 0 -- -- 95
2020-01-18 03:00:00 -1 5 Nordeste 9 Nordeste 0 -- -- 91
2020-01-18 02:00:00 0.5 2 Este 9 Este 0 -- -- 89
2020-01-18 01:00:00 2.7 0 Calma 9 Noroeste 0 -- -- 84
2020-01-18 00:00:00 3.6 5 Noroeste 9 Oeste 0 -- -- 83
2020-01-17 23:00:00 3.8 4 Oeste 13 Noroeste 0 -- -- 82
2020-01-17 22:00:00 5.4 4 Oeste 36 Oeste 0 -- -- 75
2020-01-17 21:00:00 6.8 13 Oeste 25 Oeste 0 -- -- 72
2020-01-17 20:00:00 7.5 12 Oeste 21 Oeste 0 -- -- 71
2020-01-17 19:00:00 8.4 7 Oeste 22 Sudoeste 0 -- -- 70
2020-01-17 18:00:00 10.3 12 Oeste 32 Sudoeste 0 -- -- 65
2020-01-17 17:00:00 12.4 15 Oeste 30 Oeste 0 -- -- 57
2020-01-17 16:00:00 13.6 18 Oeste 44 Sudoeste 0 -- -- 59
2020-01-17 15:00:00 14.8 19 Oeste 40 Oeste 0 -- -- 61
2020-01-17 14:00:00 13.9 18 Oeste 34 Oeste 0 -- -- 68
2020-01-17 13:00:00 9 5 Sudoeste 8 Sudoeste 0 -- -- 100
2020-01-17 12:00:00 5.4 3 Oeste 8 Sudeste 0 -- -- 100
2020-01-17 11:00:00 4 5 Sudeste 8 Sudeste 0 -- -- 100
2020-01-17 10:00:00 2.6 2 Este 6 Sudeste 0 -- -- 100
2020-01-17 09:00:00 1.1 0 Calma 8 Sur 0 -- -- 100
2020-01-17 08:00:00 2.7 2 Oeste 8 Sudoeste 0 -- -- 100
2020-01-17 07:00:00 3.2 3 Oeste 10 Sudeste 0 -- -- 100
2020-01-17 06:00:00 2.8 8 Nordeste 13 Nordeste 0 -- -- 100
2020-01-17 05:00:00 1.8 2 Sudoeste 7 Noroeste 0 -- -- 100
2020-01-17 04:00:00 0.3 3 Oeste 6 Oeste 0 -- -- 100
2020-01-17 03:00:00 0.1 4 Nordeste 7 Sudeste 0 -- -- 100
2020-01-17 02:00:00 1.8 3 Noroeste 6 Sudoeste 0 -- -- 100
2020-01-17 01:00:00 1.8 3 Norte 4 Sur 0 -- -- 100
2020-01-17 00:00:00 2.4 0 Calma 4 Oeste 0 -- -- 100
2020-01-16 23:00:00 1.9 0 Calma 5 Nordeste 0 -- -- 100
2020-01-16 22:00:00 1.4 3 Norte 6 Norte 0 -- -- 98
2020-01-16 21:00:00 2.1 2 Nordeste 6 Oeste 0 -- -- 98
2020-01-16 20:00:00 3.2 4 Oeste 9 Noroeste 0 -- -- 96
2020-01-16 19:00:00 4.6 6 Oeste 9 Noroeste 0 -- -- 93
2020-01-16 18:00:00 7.9 0 Calma 5 Nordeste 0 -- -- 89
2020-01-16 17:00:00 10.1 0 Calma 6 Sur 0 -- -- 82
2020-01-16 16:00:00 10 4 Sudeste 8 Sur 0 -- -- 83
2020-01-16 15:00:00 8.3 3 Sur 8 Sudoeste 0 -- -- 100
2020-01-16 14:00:00 5.8 2 Sur 8 Sudeste 0 -- -- 100
2020-01-16 13:00:00 3.2 4 Sudeste 6 Sudeste 0 -- -- 100
2020-01-16 12:00:00 0.8 3 Sudoeste 6 Sur 0 -- -- 100
2020-01-16 11:00:00 -0.5 3 Este 8 Nordeste 0 -- -- 100
2020-01-16 10:00:00 -1.4 6 Nordeste 8 Nordeste 0 -- -- 100
2020-01-16 09:00:00 -1.9 2 Sudoeste 5 Sudoeste 0 -- -- 100
2020-01-16 08:00:00 -2 2 Noroeste 4 Noroeste 0 -- -- 100
2020-01-16 07:00:00 -1.9 2 Sur 5 Sudeste 0 -- -- 100
2020-01-16 06:00:00 -1.6 2 Norte 5 Norte 0 -- -- 100
2020-01-16 05:00:00 -0.9 0 Calma 5 Sudoeste 0 -- -- 100
2020-01-16 04:00:00 -0.8 3 Norte 7 Nordeste 0 -- -- 100
2020-01-16 03:00:00 -0.3 4 Nordeste 6 Nordeste 0 -- -- 100
2020-01-16 02:00:00 -0.3 0 Calma 6 Sur 0 -- -- 100
2020-01-16 01:00:00 0.2 3 Sudoeste 6 Sur 0 -- -- 100
2020-01-16 00:00:00 0.8 3 Oeste 6 Noroeste 0 -- -- 100
2020-01-15 23:00:00 1 0 Calma 8 Este 0 -- -- 100
2020-01-15 22:00:00 0.7 4 Norte 7 Norte 0 -- -- 100
2020-01-15 21:00:00 1.3 3 Noroeste 5 Noroeste 0 -- -- 100
2020-01-15 20:00:00 1.2 0 Calma 6 Nordeste 0 -- -- 100
2020-01-15 19:00:00 1.3 3 Sur 6 Sur 0 -- -- 100
2020-01-15 18:00:00 1.8 2 Norte 6 Sudeste 0 -- -- 100
2020-01-15 17:00:00 2.3 2 Sudeste 8 Nordeste 0 -- -- 100
2020-01-15 16:00:00 2.4 2 Nordeste 6 Sudeste 0 -- -- 100
2020-01-15 15:00:00 1.8 4 Sudoeste 6 Sudoeste 0 -- -- 100
2020-01-15 14:00:00 1.2 0 Calma 7 Sudoeste 0 -- -- 100
2020-01-15 13:00:00 0.7 2 Sudoeste 7 Noroeste 0 -- -- 100
2020-01-15 12:00:00 0.1 2 Noroeste 8 Noroeste 0 -- -- 100
2020-01-15 11:00:00 -0.3 3 Oeste 8 Este 0 -- -- 100
2020-01-15 10:00:00 -0.6 5 Este 9 Este 0 -- -- 100
2020-01-15 09:00:00 -0.9 3 Norte 7 Norte 0 -- -- 100
2020-01-15 08:00:00 -0.9 4 Norte 10 Nordeste 0 -- -- 100
2020-01-15 07:00:00 -0.3 5 Nordeste 11 Este 0 -- -- 100
2020-01-15 06:00:00 0 0 Calma 6 Sur 0 -- -- 100
2020-01-15 05:00:00 0.1 0 Calma 6 Sudeste 0 -- -- 100
2020-01-15 04:00:00 0.1 5 Sudeste 10 Sudoeste 0 -- -- 100
2020-01-15 03:00:00 0.4 4 Sur 9 Este 0 -- -- 100
2020-01-15 02:00:00 0.6 3 Este 7 Oeste 0 -- -- 100
2020-01-15 01:00:00 0.7 0 Calma 6 Sur 0 -- -- 100
2020-01-15 00:00:00 0.8 4 Norte 5 Norte 0 -- -- 100
2020-01-14 23:00:00 0.9 2 Norte 5 Norte 0 -- -- 100
2020-01-14 22:00:00 1.2 2 Oeste 8 Oeste 0 -- -- 100
2020-01-14 21:00:00 1.1 3 Noroeste 8 Noroeste 0 -- -- 100
2020-01-14 20:00:00 1.2 3 Noroeste 6 Noroeste 0 -- -- 100
2020-01-14 19:00:00 1.2 0 Calma 6 Sudoeste 0 -- -- 100
2020-01-14 18:00:00 1.1 3 Sudoeste 7 Sudoeste 0 -- -- 100
2020-01-14 17:00:00 1.6 3 Sur 8 Sudoeste 0 -- -- 100
2020-01-14 16:00:00 1.7 3 Sudoeste 8 Sur 0 -- -- 100
2020-01-14 15:00:00 1.7 3 Sudeste 6 Este 0 -- -- 100
2020-01-14 14:00:00 1 0 Calma 8 Norte 0 -- -- 100
2020-01-14 13:00:00 -0.2 4 Nordeste 11 Nordeste 0 -- -- 100
2020-01-14 12:00:00 -0.4 4 Norte 8 Nordeste 0 -- -- 100
2020-01-14 11:00:00 -0.9 4 Nordeste 10 Este 0 -- -- 100
2020-01-14 10:00:00 -0.8 6 Este 10 Este 0 -- -- 100
2020-01-14 09:00:00 -0.8 4 Sudeste 8 Sudeste 0 -- -- 100
2020-01-14 08:00:00 -0.9 0 Calma 10 Este 0 -- -- 100
2020-01-14 07:00:00 -0.8 2 Sudoeste 8 Este 0 -- -- 100
2020-01-14 06:00:00 -0.7 2 Sudeste 6 Nordeste 0 -- -- 100
2020-01-14 05:00:00 -0.5 3 Nordeste 5 Noroeste 0 -- -- 100
2020-01-14 04:00:00 -0.4 2 Sur 6 Sur 0 -- -- 100
2020-01-14 03:00:00 -0.4 3 Sudoeste 8 Sudoeste 0 -- -- 100
2020-01-14 02:00:00 0.2 3 Sudoeste 6 Sudoeste 0 -- -- 100
2020-01-14 01:00:00 0.3 2 Oeste 6 Sudoeste 0 -- -- 100
2020-01-14 00:00:00 0.3 4 Oeste 7 Noroeste 0 -- -- 100
2020-01-13 23:00:00 0.5 3 Norte 8 Norte 0 -- -- 100
2020-01-13 22:00:00 0.5 2 Noroeste 6 Noroeste 0 -- -- 100
2020-01-13 21:00:00 0.5 4 Oeste 8 Nordeste 0 -- -- 100
2020-01-13 20:00:00 0.7 2 Noroeste 5 Sudeste 0 -- -- 100
2020-01-13 19:00:00 0.9 3 Sudeste 8 Sudeste 0 -- -- 100
2020-01-13 18:00:00 1.2 2 Sudoeste 10 Oeste 0 -- -- 100
2020-01-13 17:00:00 1.4 3 Sur 6 Sudeste 0 -- -- 100
2020-01-13 16:00:00 1.4 3 Sur 6 Oeste 0 -- -- 100
2020-01-13 15:00:00 1.2 0 Calma 6 Noroeste 0 -- -- 100
2020-01-13 14:00:00 0.9 4 Noroeste 6 Oeste 0 -- -- 100
2020-01-13 13:00:00 0.7 0 Calma 7 Sudeste 0 -- -- 100
2020-01-13 12:00:00 0.4 3 Sur 6 Sudeste 0 -- -- 100
2020-01-13 11:00:00 -0.1 3 Este 11 Nordeste 0 -- -- 100
2020-01-13 10:00:00 -0.3 5 Nordeste 9 Nordeste 0 -- -- 100
2020-01-13 09:00:00 -0.6 3 Sudeste 9 Nordeste 0 -- -- 100
2020-01-13 08:00:00 -0.6 7 Norte 9 Nordeste 0 -- -- 100
2020-01-13 07:00:00 -0.2 3 Este 9 Sudeste 0 -- -- 100
2020-01-13 06:00:00 -0.1 7 Nordeste 11 Nordeste 0 -- -- 100
2020-01-13 05:00:00 0.5 6 Nordeste 9 Nordeste 0 -- -- 100
2020-01-13 04:00:00 0.7 5 Este 9 Este 0 -- -- 100
2020-01-13 03:00:00 1.1 4 Sudeste 6 Sur 0 -- -- 100
2020-01-13 02:00:00 1.2 3 Sur 8 Este 0 -- -- 100
2020-01-13 01:00:00 1.4 2 Norte 9 Norte 0 -- -- 100
2020-01-13 00:00:00 1.5 3 Oeste 6 Sudoeste 0 -- -- 100
2020-01-12 23:00:00 1.6 0 Calma 5 Oeste 0 -- -- 100
2020-01-12 22:00:00 1.8 3 Sur 8 Sudoeste 0 -- -- 100
2020-01-12 21:00:00 2.1 0 Calma 8 Noroeste 0 -- -- 100
2020-01-12 20:00:00 2.4 0 Calma 5 Oeste 0 -- -- 100
2020-01-12 19:00:00 2.1 0 Calma 8 Norte 0 -- -- 100
2020-01-12 18:00:00 2.2 3 Norte 6 Norte 0 -- -- 100
2020-01-12 17:00:00 2.3 3 Sur 7 Este 0 -- -- 100
2020-01-12 16:00:00 2.4 3 Sur 9 Sudeste 0 -- -- 100
2020-01-12 15:00:00 2.5 5 Sudeste 9 Sudeste 0 -- -- 100
2020-01-12 14:00:00 2.3 0 Calma 7 Sudoeste 0 -- -- 100
2020-01-12 13:00:00 2 0 Calma 8 Sudoeste 0 -- -- 100
2020-01-12 12:00:00 1.1 4 Oeste 8 Oeste 0 -- -- 100
2020-01-12 11:00:00 0.1 2 Sudoeste 4 Sudoeste 0 -- -- 100
2020-01-12 10:00:00 -0.5 0 Calma 4 Oeste 0 -- -- 100
2020-01-12 09:00:00 -0.8 0 Calma 3 Noroeste 0 -- -- 100
2020-01-12 08:00:00 -1.1 0 Calma 3 Este 0 -- -- 100
2020-01-12 07:00:00 -1.5 0 Calma 5 Sudoeste 0 -- -- 100
2020-01-12 06:00:00 -2.3 3 Sur 7 Sudoeste 0 -- -- 100
2020-01-12 05:00:00 -3.9 0 Calma 2 Sudoeste 0 -- -- 100
2020-01-12 04:00:00 -3.3 0 Calma 4 Norte 0 -- -- 99
2020-01-12 03:00:00 -2.7 3 Noroeste 4 Noroeste 0 -- -- 99
2020-01-12 02:00:00 -2.3 0 Calma 3 Norte 0 -- -- 99
2020-01-12 01:00:00 -2.7 2 Norte 3 Norte 0 -- -- 98
2020-01-12 00:00:00 -1.7 0 Calma 3 Sur 0 -- -- 98
2020-01-11 23:00:00 -0.8 2 Noroeste 6 Noroeste 0 -- -- 98
2020-01-11 22:00:00 -0.7 3 Noroeste 4 Noroeste 0 -- -- 98
2020-01-11 21:00:00 0.6 2 Noroeste 8 Nordeste 0 -- -- 96
2020-01-11 20:00:00 1.6 5 Nordeste 9 Este 0 -- -- 96
2020-01-11 19:00:00 2.2 4 Este 7 Este 0 -- -- 93
2020-01-11 18:00:00 4.4 6 Nordeste 11 Nordeste 0 -- -- 88
2020-01-11 17:00:00 7.1 7 Nordeste 9 Nordeste 0 -- -- 83
2020-01-11 16:00:00 7.7 5 Nordeste 9 Nordeste 0 -- -- 81
2020-01-11 15:00:00 6.8 4 Este 9 Nordeste 0 -- -- 93
2020-01-11 14:00:00 6 3 Sudeste 9 Este 0 -- -- 100
2020-01-11 13:00:00 4.2 4 Este 14 Sudeste 0 -- -- 100
2020-01-11 12:00:00 3.6 9 Sudeste 13 Sur 0 -- -- 100
2020-01-11 11:00:00 3.8 4 Sudeste 8 Sur 0 -- -- 100
2020-01-11 10:00:00 2.8 3 Sur 9 Sur 0 -- -- 100
2020-01-11 09:00:00 2.2 6 Sur 8 Sur 0 -- -- 100
2020-01-11 08:00:00 3.5 3 Sudoeste 5 Oeste 0 -- -- 100
2020-01-11 07:00:00 3.4 2 Oeste 5 Oeste 0 -- -- 100
2020-01-11 06:00:00 3.2 3 Sudoeste 6 Sur 0 -- -- 100
2020-01-11 05:00:00 3.5 5 Sur 8 Sur 0 -- -- 100
2020-01-11 04:00:00 3.4 4 Oeste 5 Oeste 0 -- -- 100
2020-01-11 03:00:00 3.6 2 Sudeste 7 Nordeste 0 -- -- 100
2020-01-11 02:00:00 2.9 7 Norte 9 Norte 0 -- -- 100
2020-01-11 01:00:00 1.8 3 Noroeste 9 Noroeste 0 -- -- 100
2020-01-11 00:00:00 2.2 4 Este 8 Este 0 -- -- 100
2020-01-10 23:00:00 1.3 3 Sudeste 6 Noroeste 0 -- -- 100
2020-01-10 22:00:00 1.3 0 Calma 9 Noroeste 0 -- -- 99
2020-01-10 21:00:00 2.6 6 Noroeste 9 Noroeste 0 -- -- 99
2020-01-10 20:00:00 2.8 4 Norte 8 Nordeste 0 -- -- 99
2020-01-10 19:00:00 2.8 4 Este 7 Nordeste 0 -- -- 95
2020-01-10 18:00:00 5.7 3 Norte -- -- 0 -- -- 92
2020-01-10 17:00:00 8.2 0 Calma 9 Sudeste 0 -- -- 91
2020-01-10 16:00:00 7.6 5 Este 10 Nordeste 0 -- -- 97
2020-01-10 15:00:00 6.7 6 Nordeste 12 Nordeste 0 -- -- 100
2020-01-10 14:00:00 6 3 Sur 9 Sudeste 0 -- -- 100
2020-01-10 13:00:00 6.1 7 Sudeste 13 Sudeste 0 -- -- 100
2020-01-10 12:00:00 6 6 Sudeste 9 Este 0 -- -- 100
2020-01-10 11:00:00 5.4 5 Noroeste 15 Norte 0 -- -- 100
2020-01-10 10:00:00 4.4 6 Noroeste 9 Noroeste 0 -- -- 100
2020-01-10 09:00:00 4.3 3 Este 8 Este 0 -- -- 100
2020-01-10 08:00:00 4.3 6 Este 13 Este 0 -- -- 100
2020-01-10 07:00:00 4.4 9 Este 13 Este 0.2 -- -- 100
2020-01-10 06:00:00 4.4 7 Sudeste 14 Sur 0 -- -- 100
2020-01-10 05:00:00 4.5 5 Sur 12 Sur 0 -- -- 100
2020-01-10 04:00:00 4.4 5 Sur 11 Sur 0 -- -- 100
2020-01-10 03:00:00 4.2 3 Sudoeste 15 Sudoeste 0 -- -- 100
2020-01-10 02:00:00 4.5 8 Sudoeste 14 Sudoeste 0.2 -- -- 100
2020-01-10 01:00:00 4.6 4 Sur 6 Sur 0 -- -- 100
2020-01-10 00:00:00 4.7 3 Sudoeste 8 Sudoeste 0 -- -- 100
2020-01-09 23:00:00 4.4 0 Calma 6 Este 0 -- -- 100
2020-01-09 22:00:00 4.1 0 Calma 3 Norte 0 -- -- 100
2020-01-09 21:00:00 3.8 2 Sur 8 Sur 0 -- -- 100
2020-01-09 20:00:00 4.2 4 Sudoeste 7 Sur 0 -- -- 100
2020-01-09 19:00:00 4.2 3 Sudeste 11 Oeste 0 -- -- 100
2020-01-09 18:00:00 3.6 5 Oeste 11 Oeste 0 -- -- 100
2020-01-09 17:00:00 3.7 0 Calma 8 Este 0 -- -- 100
2020-01-09 16:00:00 3.9 2 Este 9 Sudeste 0 -- -- 100
2020-01-09 15:00:00 3.7 2 Oeste 10 Oeste 0 -- -- 100
2020-01-09 14:00:00 3.3 0 Calma 8 Oeste 0 -- -- 100
2020-01-09 13:00:00 2.9 4 Sudoeste 6 Sudoeste 0 -- -- 100
2020-01-09 12:00:00 2.6 3 Sudeste 8 Oeste 0 -- -- 100
2020-01-09 11:00:00 2.3 4 Este 8 Nordeste 0 -- -- 100
2020-01-09 10:00:00 1.8 5 Nordeste 8 Este 0 -- -- 100
2020-01-09 09:00:00 1.9 2 Este 7 Sudeste 0 -- -- 100
2020-01-09 08:00:00 2.3 2 Sudeste 6 Sudeste 0 -- -- 100
2020-01-09 07:00:00 2.4 3 Este 5 Este 0 -- -- 100
2020-01-09 06:00:00 2.6 3 Sur 6 Sur 0 -- -- 100
2020-01-09 05:00:00 2.6 3 Nordeste 5 Norte 0 -- -- 100
2020-01-09 04:00:00 2.9 0 Calma 6 Sudeste 0 -- -- 100
2020-01-09 03:00:00 3 3 Este 5 Este 0 -- -- 100
2020-01-09 02:00:00 3.1 0 Calma 8 Nordeste 0 -- -- 100
2020-01-09 01:00:00 3.4 3 Sudeste 6 Sudeste 0 -- -- 100
2020-01-09 00:00:00 3.4 0 Calma 6 Este 0 -- -- 100
2020-01-08 23:00:00 3.6 0 Calma 5 Oeste 0 -- -- 100
2020-01-08 22:00:00 3.8 2 Sudeste 5 Sudoeste 0 -- -- 100
2020-01-08 21:00:00 3.7 4 Sudoeste 8 Sur 0 -- -- 99
2020-01-08 20:00:00 3.9 4 Sudoeste 9 Sur 0 -- -- 99
2020-01-08 19:00:00 4 2 Sur 8 Sudoeste 0 -- -- 97
2020-01-08 18:00:00 4.3 3 Sur 9 Sur 0 -- -- 94
2020-01-08 17:00:00 5.5 5 Sudoeste 9 Sudoeste 0 -- -- 90
2020-01-08 16:00:00 6.3 6 Sudoeste 10 Sudoeste 0 -- -- 88
2020-01-08 15:00:00 6.7 4 Sur 9 Sudoeste 0 -- -- 88
2020-01-08 14:00:00 4.6 4 Oeste 9 Oeste 0 -- -- 95
2020-01-08 13:00:00 4.2 3 Norte 8 Sudeste 0 -- -- 98
2020-01-08 12:00:00 3.3 2 Este 8 Nordeste 0 -- -- 100
2020-01-08 11:00:00 2.5 5 Nordeste 11 Este 0 -- -- 100
2020-01-08 10:00:00 2.3 6 Este 12 Nordeste 0 -- -- 100
2020-01-08 09:00:00 2.4 8 Nordeste 12 Norte 0 -- -- 100
2020-01-08 08:00:00 2.6 8 Este 13 Este 0 -- -- 100
2020-01-08 07:00:00 2.6 3 Este 6 Este 0 -- -- 100
2020-01-08 06:00:00 2.6 2 Oeste 4 Sur 0 -- -- 100
2020-01-08 05:00:00 2.7 2 Sur 5 Sudeste 0 -- -- 99
2020-01-08 04:00:00 2.8 0 Calma 5 Oeste 0 -- -- 99
2020-01-08 03:00:00 2.8 2 Nordeste 5 Norte 0 -- -- 99
2020-01-08 02:00:00 2.9 2 Sur 7 Oeste 0 -- -- 99
2020-01-08 01:00:00 3 3 Sudoeste 6 Oeste 0 -- -- 99
2020-01-08 00:00:00 3 2 Norte 6 Sudoeste 0 -- -- 98
2020-01-07 23:00:00 3.2 2 Noroeste 8 Norte 0 -- -- 98
2020-01-07 22:00:00 3.3 4 Oeste 6 Oeste 0 -- -- 98
2020-01-07 21:00:00 3.3 0 Calma 5 Sudeste 0 -- -- 98
2020-01-07 20:00:00 3.2 0 Calma 11 Este 0 -- -- 98
2020-01-07 19:00:00 3.2 2 Sudeste 7 Nordeste 0 -- -- 98
2020-01-07 18:00:00 3.3 3 Sudeste 6 Este 0 -- -- 98
2020-01-07 17:00:00 3.3 2 Oeste 10 Sudoeste 0 -- -- 97
2020-01-07 16:00:00 3.5 3 Sudeste 9 Sudeste 0 -- -- 98
2020-01-07 15:00:00 3.6 5 Sur 8 Sur 0 -- -- 98
2020-01-07 14:00:00 3.6 4 Sur 10 Sudeste 0 -- -- 99
2020-01-07 13:00:00 3.5 5 Sur 9 Sur 0 -- -- 99
2020-01-07 12:00:00 3.3 3 Sur 8 Sur 0 -- -- 100
2020-01-07 11:00:00 3.1 3 Sur 11 Sudoeste 0 -- -- 100
2020-01-07 10:00:00 3.2 5 Sur 10 Sudoeste 0 -- -- 100
2020-01-07 09:00:00 3.3 4 Sur 8 Sur 0 -- -- 100
2020-01-07 08:00:00 3.4 3 Sur 8 Sudoeste 0 -- -- 100
2020-01-07 07:00:00 3.5 2 Sudoeste 7 Sudoeste 0 -- -- 100
2020-01-07 06:00:00 3.5 4 Sudoeste 6 Sudoeste 0 -- -- 100
2020-01-07 05:00:00 3.5 3 Sudoeste 11 Sudoeste 0 -- -- 100
2020-01-07 04:00:00 3.6 7 Sudoeste 14 Sudoeste 0.2 -- -- 100
2020-01-07 03:00:00 3.9 6 Sur 10 Sur 0 -- -- 100
2020-01-07 02:00:00 4.2 5 Sudeste 9 Sudeste 0 -- -- 100
2020-01-07 01:00:00 4.4 5 Sudeste 8 Sudeste 0 -- -- 100
2020-01-07 00:00:00 4.4 3 Sur 9 Sudoeste 0 -- -- 100
2020-01-06 23:00:00 4.3 3 Sudoeste 9 Sudoeste 0 -- -- 100
2020-01-06 22:00:00 4.1 3 Noroeste 6 Norte 0 -- -- 99
2020-01-06 21:00:00 4.2 2 Sudeste 7 Este 0 -- -- 99
2020-01-06 20:00:00 4.2 4 Sudeste 9 Este 0 -- -- 98
2020-01-06 19:00:00 4.3 5 Este 8 Este 0 -- -- 98
2020-01-06 18:00:00 4.5 4 Sudeste 7 Sudeste 0 -- -- 97
2020-01-06 17:00:00 4.7 4 Sudeste 10 Sudeste 0 -- -- 95
2020-01-06 16:00:00 5.1 4 Este 9 Sur 0 -- -- 95
2020-01-06 15:00:00 4.9 3 Norte 6 Sudeste 0 -- -- 96
2020-01-06 14:00:00 4.2 3 Este 8 Sudoeste 0 -- -- 99
2020-01-06 13:00:00 3.5 5 Sudoeste 9 Sudoeste 0 -- -- 100
2020-01-06 12:00:00 2.9 3 Sudeste 9 Sudoeste 0 -- -- 100
2020-01-06 11:00:00 2.4 4 Sudeste 8 Sur 0 -- -- 100
2020-01-06 10:00:00 1.6 2 Oeste 7 Sudoeste 0 -- -- 100